createdAt,value
2023-02-28T00:01:35.922Z,6.90
2023-02-28T00:04:04.353Z,8.07
2023-02-28T00:06:34.154Z,6.93
2023-02-28T00:09:00.996Z,7.15
2023-02-28T00:11:28.248Z,6.78
2023-02-28T00:13:59.601Z,6.75
2023-02-28T00:16:27.678Z,6.40
2023-02-28T00:18:55.683Z,6.75
2023-02-28T00:21:22.811Z,6.40
2023-02-28T00:23:50.080Z,6.97
2023-02-28T00:26:17.203Z,6.05
2023-02-28T00:28:47.304Z,6.53
2023-02-28T00:31:19.162Z,6.90
2023-02-28T00:33:49.888Z,6.53
2023-02-28T00:36:18.751Z,6.30
2023-02-28T00:38:45.759Z,6.43
2023-02-28T00:41:17.343Z,6.75
2023-02-28T00:43:45.150Z,7.10
2023-02-28T00:46:13.576Z,6.55
2023-02-28T00:48:40.486Z,7.00
2023-02-28T00:51:07.269Z,6.68
2023-02-28T00:53:34.385Z,6.72
2023-02-28T00:56:03.717Z,7.00
2023-02-28T00:58:32.736Z,7.70
2023-02-28T01:01:01.628Z,7.03
2023-02-28T01:03:29.781Z,6.68
2023-02-28T01:05:57.217Z,7.07
2023-02-28T01:08:24.590Z,7.07
2023-02-28T01:10:51.672Z,6.88
2023-02-28T01:13:21.473Z,6.85
2023-02-28T01:15:54.050Z,7.30
2023-02-28T01:20:52.947Z,7.55
2023-02-28T01:23:21.421Z,7.35
2023-02-28T01:25:48.397Z,7.32
2023-02-28T01:28:15.355Z,7.40
2023-02-28T01:30:42.537Z,8.15
2023-02-28T01:33:09.598Z,7.80
2023-02-28T01:35:38.650Z,7.22
2023-02-28T01:38:20.955Z,7.40
2023-02-28T01:40:49.040Z,7.63
2023-02-28T01:43:44.968Z,8.20
2023-02-28T01:46:15.124Z,7.78
2023-02-28T01:48:54.672Z,7.75
2023-02-28T01:51:28.370Z,7.50
2023-02-28T01:54:06.901Z,8.20
2023-02-28T01:56:37.523Z,7.40
2023-02-28T01:59:06.148Z,7.17
2023-02-28T02:01:37.042Z,7.72
2023-02-28T02:04:04.964Z,7.72
2023-02-28T02:06:41.081Z,8.63
2023-02-28T02:09:10.880Z,8.10
2023-02-28T02:11:41.709Z,8.70
2023-02-28T02:14:12.938Z,8.68
2023-02-28T02:16:48.882Z,8.45
2023-02-28T02:19:46.571Z,8.45
2023-02-28T02:22:56.076Z,7.88
2023-02-28T02:26:13.260Z,7.85
2023-02-28T02:29:09.463Z,8.93
2023-02-28T02:32:06.322Z,8.13
2023-02-28T02:34:44.450Z,8.25
2023-02-28T02:37:32.357Z,8.90
2023-02-28T02:40:14.729Z,9.18
2023-02-28T02:43:03.003Z,8.60
2023-02-28T02:45:37.716Z,8.43
2023-02-28T02:48:10.832Z,8.82
2023-02-28T02:50:43.963Z,8.85
2023-02-28T02:53:13.544Z,9.35
2023-02-28T02:55:45.888Z,9.68
2023-02-28T02:58:17.855Z,9.73
2023-02-28T03:00:54.281Z,9.40
2023-02-28T03:03:30.026Z,10.20
2023-02-28T03:06:00.019Z,10.13
2023-02-28T03:08:28.170Z,9.50
2023-02-28T03:11:02.102Z,9.73
2023-02-28T03:14:06.661Z,10.48
2023-02-28T03:17:09.251Z,9.93
2023-02-28T03:20:09.122Z,9.68
2023-02-28T03:23:09.258Z,10.10
2023-02-28T03:25:53.659Z,10.55
2023-02-28T03:28:34.088Z,10.77
2023-02-28T03:31:22.187Z,9.95
2023-02-28T03:34:02.254Z,10.30
2023-02-28T03:36:34.250Z,10.27
2023-02-28T03:39:06.463Z,9.95
2023-02-28T03:41:48.816Z,10.63
2023-02-28T03:44:31.397Z,10.45
2023-02-28T03:47:08.548Z,11.40
2023-02-28T03:49:55.746Z,10.77
2023-02-28T03:52:27.360Z,11.55
2023-02-28T03:55:03.608Z,11.95
2023-02-28T03:57:41.033Z,10.60
2023-02-28T04:00:17.353Z,12.45
2023-02-28T04:02:45.489Z,15.07
2023-02-28T04:05:12.747Z,12.43
2023-02-28T04:07:40.596Z,12.27
2023-02-28T04:10:08.062Z,12.10
2023-02-28T04:12:35.061Z,12.25
2023-02-28T04:15:03.261Z,11.77
2023-02-28T04:17:31.146Z,12.50
2023-02-28T04:20:01.579Z,11.88
2023-02-28T04:22:30.436Z,11.90
2023-02-28T04:24:57.407Z,12.55
2023-02-28T04:27:26.507Z,12.63
2023-02-28T04:29:54.682Z,12.38
2023-02-28T04:32:22.080Z,12.60
2023-02-28T04:34:49.016Z,12.15
2023-02-28T04:37:19.986Z,12.60
2023-02-28T04:39:47.483Z,13.05
2023-02-28T04:42:14.622Z,12.80
2023-02-28T04:44:41.539Z,13.10
2023-02-28T04:47:15.924Z,12.85
2023-02-28T04:49:45.975Z,12.05
2023-02-28T04:52:14.856Z,12.65
2023-02-28T04:54:41.735Z,12.73
2023-02-28T04:57:08.562Z,11.63
2023-02-28T04:59:35.389Z,12.18
2023-02-28T05:02:07.775Z,12.85
2023-02-28T05:07:04.056Z,12.82
2023-02-28T05:09:31.168Z,12.82
2023-02-28T05:12:00.184Z,12.25
2023-02-28T05:14:28.036Z,15.63
2023-02-28T05:16:54.868Z,12.60
2023-02-28T05:19:22.756Z,13.00
2023-02-28T05:21:56.059Z,12.68
2023-02-28T05:24:23.882Z,12.32
2023-02-28T05:26:54.071Z,12.70
2023-02-28T05:29:22.624Z,12.88
2023-02-28T05:31:49.661Z,12.75
2023-02-28T05:34:17.081Z,12.80
2023-02-28T05:36:44.365Z,12.95
2023-02-28T05:39:14.088Z,11.80
2023-02-28T05:41:43.291Z,12.63
2023-02-28T05:44:11.098Z,12.60
2023-02-28T05:46:38.009Z,12.27
2023-02-28T05:49:06.573Z,12.43
2023-02-28T05:51:37.456Z,12.68
2023-02-28T05:54:04.537Z,11.75
2023-02-28T05:56:33.279Z,12.18
2023-02-28T05:59:00.165Z,12.10
2023-02-28T06:01:36.832Z,12.57
2023-02-28T06:04:09.882Z,12.63
2023-02-28T06:06:43.127Z,12.15
2023-02-28T06:09:10.377Z,12.77
2023-02-28T06:11:40.671Z,12.00
2023-02-28T06:14:07.897Z,11.70
2023-02-28T06:16:36.685Z,11.88
2023-02-28T06:19:05.212Z,11.65
2023-02-28T06:21:33.314Z,12.13
2023-02-28T06:24:00.570Z,12.75
2023-02-28T06:26:28.576Z,12.02
2023-02-28T06:28:56.850Z,12.82
2023-02-28T06:31:25.564Z,12.07
2023-02-28T06:33:54.688Z,11.90
2023-02-28T06:36:22.362Z,12.65
2023-02-28T06:38:52.591Z,12.07
2023-02-28T06:41:20.542Z,11.93
2023-02-28T06:43:48.693Z,11.57
2023-02-28T06:46:17.656Z,11.75
2023-02-28T06:48:46.241Z,11.75
2023-02-28T06:51:17.190Z,12.20
2023-02-28T06:53:46.149Z,12.05
2023-02-28T06:56:16.468Z,11.65
2023-02-28T06:58:46.671Z,11.00
2023-02-28T07:01:16.094Z,12.07
2023-02-28T07:03:43.070Z,11.00
2023-02-28T07:06:10.458Z,11.50
2023-02-28T07:08:42.222Z,11.38
2023-02-28T07:11:10.343Z,11.73
2023-02-28T07:13:39.202Z,12.15
2023-02-28T07:16:10.768Z,10.77
2023-02-28T07:18:41.591Z,10.82
2023-02-28T07:21:11.394Z,11.88
2023-02-28T07:23:40.549Z,13.52
2023-02-28T07:26:12.300Z,18.23
2023-02-28T07:28:39.290Z,16.23
2023-02-28T07:31:08.536Z,13.90
2023-02-28T07:33:36.444Z,10.93
2023-02-28T07:36:12.491Z,11.27
2023-02-28T07:38:40.793Z,9.45
2023-02-28T07:41:11.279Z,9.77
2023-02-28T07:43:38.263Z,10.70
2023-02-28T07:46:08.176Z,9.95
2023-02-28T07:48:35.475Z,9.63
2023-02-28T07:51:02.837Z,9.45
2023-02-28T07:53:30.642Z,8.93
2023-02-28T07:55:58.701Z,8.77
2023-02-28T07:58:26.908Z,8.52
2023-02-28T08:00:54.145Z,8.70
2023-02-28T08:03:31.960Z,8.15
2023-02-28T08:06:00.325Z,8.15
2023-02-28T08:08:30.242Z,8.10
2023-02-28T08:10:58.716Z,7.78
2023-02-28T08:13:25.771Z,8.13
2023-02-28T08:15:54.776Z,7.53
2023-02-28T08:18:22.149Z,7.28
2023-02-28T08:20:50.754Z,7.65
2023-02-28T08:23:18.030Z,7.35
2023-02-28T08:25:45.771Z,7.47
2023-02-28T08:28:14.668Z,6.60
2023-02-28T08:30:42.213Z,6.43
2023-02-28T08:33:10.397Z,6.63
2023-02-28T08:35:38.662Z,6.47
2023-02-28T08:38:07.531Z,6.47
2023-02-28T08:40:36.486Z,6.22
2023-02-28T08:43:04.539Z,7.13
2023-02-28T08:45:46.557Z,6.13
2023-02-28T08:48:14.556Z,6.30
2023-02-28T08:51:05.969Z,6.40
2023-02-28T08:53:37.460Z,6.05
2023-02-28T08:56:08.449Z,6.63
2023-02-28T08:58:37.738Z,6.32
2023-02-28T09:01:15.928Z,6.63
2023-02-28T09:03:43.963Z,6.45
2023-02-28T09:06:12.374Z,6.35
2023-02-28T09:08:42.205Z,5.93
2023-02-28T09:11:10.059Z,6.47
2023-02-28T09:13:37.943Z,6.30
2023-02-28T09:16:08.738Z,5.43
2023-02-28T09:18:38.448Z,5.97
2023-02-28T09:21:08.371Z,5.82
2023-02-28T09:23:39.232Z,6.00
2023-02-28T09:26:08.254Z,5.25
2023-02-28T09:28:36.256Z,5.45
2023-02-28T09:31:05.628Z,4.70
2023-02-28T09:33:33.040Z,4.97
2023-02-28T09:36:04.989Z,4.85
2023-02-28T09:38:36.930Z,5.43
2023-02-28T09:41:42.450Z,4.70
2023-02-28T09:47:09.212Z,4.43
2023-02-28T09:49:45.113Z,4.03
2023-02-28T09:52:31.381Z,4.47
2023-02-28T09:55:21.009Z,4.20
2023-02-28T09:58:01.298Z,4.15
2023-02-28T10:00:35.136Z,4.07
2023-02-28T10:03:37.023Z,3.95
2023-02-28T10:06:12.192Z,3.53
2023-02-28T10:08:52.077Z,3.97
2023-02-28T10:11:21.708Z,4.10
2023-02-28T10:14:02.940Z,4.00
2023-02-28T10:16:33.840Z,4.50
2023-02-28T10:19:06.814Z,3.67
2023-02-28T10:21:42.279Z,4.00
2023-02-28T10:24:21.299Z,4.13
2023-02-28T10:26:52.430Z,3.60
2023-02-28T10:29:22.121Z,3.42
2023-02-28T10:31:50.222Z,3.10
2023-02-28T10:34:20.450Z,3.65
2023-02-28T10:40:03.469Z,3.10
2023-02-28T10:48:32.299Z,3.25
2023-02-28T10:51:08.574Z,3.60
2023-02-28T10:59:43.757Z,2.90
2023-02-28T11:05:32.999Z,3.30
2023-02-28T11:08:20.391Z,2.70
2023-02-28T11:11:02.982Z,2.97
2023-02-28T11:13:38.203Z,3.17
2023-02-28T11:16:12.790Z,3.40
2023-02-28T11:18:47.838Z,2.88
2023-02-28T11:21:24.028Z,5.43
2023-02-28T11:23:56.144Z,3.13
2023-02-28T11:26:44.870Z,2.47
2023-02-28T11:29:23.005Z,2.92
2023-02-28T11:32:11.113Z,3.00
2023-02-28T11:34:42.202Z,3.30
2023-02-28T11:37:16.656Z,2.85
2023-02-28T11:39:48.725Z,2.90
2023-02-28T11:42:43.869Z,3.17
2023-02-28T11:45:35.177Z,3.10
2023-02-28T11:48:13.713Z,3.10
2023-02-28T11:51:11.645Z,2.78
2023-02-28T11:54:11.338Z,3.10
2023-02-28T11:57:02.230Z,2.97
2023-02-28T11:59:39.458Z,3.55
2023-02-28T12:02:29.588Z,3.63
2023-02-28T12:05:13.072Z,3.35
2023-02-28T12:07:48.746Z,3.05
2023-02-28T12:10:38.380Z,3.25
2023-02-28T12:13:20.712Z,3.00
2023-02-28T12:16:22.011Z,3.10
2023-02-28T12:18:54.274Z,3.20
2023-02-28T12:22:02.228Z,3.33
2023-02-28T12:24:46.611Z,3.40
2023-02-28T12:27:24.403Z,2.92
2023-02-28T12:30:05.650Z,2.75
2023-02-28T12:32:41.024Z,2.97
2023-02-28T12:35:16.882Z,3.22
2023-02-28T12:38:13.957Z,2.75
2023-02-28T12:41:07.983Z,2.95
2023-02-28T12:43:43.751Z,2.90
2023-02-28T12:46:33.495Z,2.60
2023-02-28T12:49:09.297Z,3.08
2023-02-28T12:51:37.982Z,2.70
2023-02-28T12:54:26.136Z,3.10
2023-02-28T12:56:59.099Z,2.92
2023-02-28T12:59:47.291Z,2.80
2023-02-28T13:02:33.593Z,2.95
2023-02-28T13:05:30.214Z,2.80
2023-02-28T13:08:12.495Z,2.88
2023-02-28T13:10:48.802Z,3.10
2023-02-28T13:13:23.595Z,2.85
2023-02-28T13:16:04.925Z,3.10
2023-02-28T13:18:43.029Z,2.95
2023-02-28T13:21:32.362Z,3.00
2023-02-28T13:24:05.773Z,2.92
2023-02-28T13:26:38.851Z,3.03
2023-02-28T13:29:11.885Z,2.95
2023-02-28T13:32:07.000Z,3.08
2023-02-28T13:34:40.459Z,3.20
2023-02-28T13:37:22.886Z,3.42
2023-02-28T13:39:57.306Z,3.08
2023-02-28T13:42:32.364Z,3.28
2023-02-28T13:45:05.535Z,3.25
2023-02-28T13:48:01.792Z,3.30
2023-02-28T13:50:41.570Z,3.08
2023-02-28T13:53:14.482Z,3.17
2023-02-28T13:56:01.034Z,3.28
2023-02-28T13:59:16.724Z,3.40
2023-02-28T14:02:30.091Z,3.00
2023-02-28T14:05:16.683Z,3.08
2023-02-28T14:10:44.382Z,3.17
2023-02-28T14:13:53.094Z,3.55
2023-02-28T14:16:29.915Z,3.63
2023-02-28T14:19:16.323Z,3.45
2023-02-28T14:22:30.329Z,3.42
2023-02-28T14:26:11.388Z,3.00
2023-02-28T14:34:06.076Z,3.13
2023-02-28T14:36:47.094Z,3.70
2023-02-28T14:39:21.796Z,4.20
2023-02-28T14:41:53.025Z,3.22
2023-02-28T14:44:31.792Z,3.30
2023-02-28T14:47:06.853Z,3.45
2023-02-28T14:49:40.059Z,3.60
2023-02-28T14:52:19.101Z,3.60
2023-02-28T14:54:48.615Z,3.47
2023-02-28T14:57:43.215Z,4.20
2023-02-28T15:00:16.218Z,3.85
2023-02-28T15:02:46.373Z,3.42
2023-02-28T15:08:30.493Z,3.83
2023-02-28T15:11:03.826Z,5.90
2023-02-28T15:13:49.707Z,5.20
2023-02-28T15:16:22.619Z,4.60
2023-02-28T15:19:01.339Z,5.40
2023-02-28T15:21:42.886Z,3.90
2023-02-28T15:24:43.464Z,3.70
2023-02-28T15:27:27.913Z,4.22
2023-02-28T15:29:59.848Z,3.55
2023-02-28T15:32:33.560Z,4.15
2023-02-28T15:38:22.748Z,4.03
2023-02-28T15:40:59.099Z,4.63
2023-02-28T15:43:32.666Z,4.70
2023-02-28T15:46:26.773Z,4.50
2023-02-28T15:48:57.841Z,4.35
2023-02-28T15:51:40.608Z,5.57
2023-02-28T15:54:13.472Z,4.30
2023-02-28T15:56:51.282Z,6.53
2023-02-28T15:59:25.186Z,5.50
2023-02-28T16:02:20.779Z,5.38
2023-02-28T16:04:58.200Z,4.40
2023-02-28T16:07:35.456Z,4.28
2023-02-28T16:10:17.219Z,4.28
2023-02-28T16:12:45.120Z,4.30
2023-02-28T16:15:20.478Z,4.28
2023-02-28T16:17:50.758Z,4.05
2023-02-28T16:20:26.518Z,4.13
2023-02-28T16:22:55.533Z,4.13
2023-02-28T16:25:34.986Z,4.95
2023-02-28T16:28:39.736Z,4.05
2023-02-28T16:31:15.731Z,4.38
2023-02-28T16:33:43.844Z,3.88
2023-02-28T16:36:20.260Z,4.22
2023-02-28T16:38:57.070Z,4.13
2023-02-28T16:41:28.966Z,4.53
2023-02-28T16:44:10.993Z,3.78
2023-02-28T16:46:38.313Z,4.00
2023-02-28T16:49:11.824Z,3.95
2023-02-28T16:51:44.125Z,3.85
2023-02-28T16:54:15.193Z,7.38
2023-02-28T16:56:48.994Z,4.93
2023-02-28T16:59:25.098Z,4.18
2023-02-28T17:04:40.821Z,4.15
2023-02-28T17:10:04.769Z,4.30
2023-02-28T17:12:33.337Z,4.40
2023-02-28T17:17:58.632Z,4.25
2023-02-28T17:20:29.314Z,4.07
2023-02-28T17:26:07.661Z,4.20
2023-02-28T17:28:38.733Z,4.32
2023-02-28T17:31:11.841Z,4.75
2023-02-28T17:33:39.380Z,4.03
2023-02-28T17:36:23.530Z,4.57
2023-02-28T17:38:56.282Z,4.72
2023-02-28T17:41:36.964Z,4.10
2023-02-28T17:44:07.218Z,4.55
2023-02-28T17:46:35.741Z,4.70
2023-02-28T17:49:06.974Z,4.70
2023-02-28T17:51:40.262Z,4.97
2023-02-28T17:54:09.132Z,4.88
2023-02-28T18:05:12.366Z,4.65
2023-02-28T18:07:44.420Z,5.15
2023-02-28T18:10:21.861Z,4.50
2023-02-28T18:12:55.441Z,4.60
2023-02-28T18:15:38.879Z,4.28
2023-02-28T18:28:58.836Z,5.03
2023-02-28T18:32:23.289Z,5.25
2023-02-28T18:34:55.202Z,4.97
2023-02-28T18:37:28.251Z,5.00
2023-02-28T18:39:59.497Z,5.72
2023-02-28T18:45:51.636Z,6.00
2023-02-28T18:48:51.366Z,5.38
2023-02-28T18:51:28.391Z,4.95
2023-02-28T18:54:01.572Z,5.13
2023-02-28T18:56:33.698Z,5.25
2023-02-28T18:59:02.193Z,5.45
2023-02-28T19:01:32.317Z,5.35
2023-02-28T19:04:40.049Z,5.50
2023-02-28T19:07:34.987Z,5.80
2023-02-28T19:10:23.064Z,5.22
2023-02-28T19:12:59.046Z,5.57
2023-02-28T19:18:54.886Z,5.72
2023-02-28T19:21:37.360Z,5.82
2023-02-28T19:24:06.122Z,5.72
2023-02-28T19:35:24.947Z,5.97
2023-02-28T19:38:22.631Z,6.50
2023-02-28T19:41:04.263Z,6.00
2023-02-28T19:43:46.084Z,6.20
2023-02-28T19:46:21.264Z,6.25
2023-02-28T19:48:52.130Z,6.60
2023-02-28T19:51:19.821Z,6.05
2023-02-28T19:53:49.399Z,6.22
2023-02-28T19:56:16.659Z,6.80
2023-02-28T19:58:43.953Z,7.53
2023-02-28T20:01:22.275Z,6.55
2023-02-28T20:03:52.892Z,6.90
2023-02-28T20:06:47.533Z,7.20
2023-02-28T20:09:19.737Z,7.50
2023-02-28T20:14:58.008Z,7.47
2023-02-28T20:17:26.564Z,7.00
2023-02-28T20:19:55.735Z,9.40
2023-02-28T20:22:23.086Z,8.63
2023-02-28T20:24:53.372Z,8.57
2023-02-28T20:27:20.421Z,7.78
2023-02-28T20:29:47.831Z,8.57
2023-02-28T20:32:14.990Z,8.13
2023-02-28T20:34:49.157Z,8.90
2023-02-28T20:37:19.800Z,8.10
2023-02-28T20:39:47.907Z,8.85
2023-02-28T20:42:16.335Z,8.35
2023-02-28T20:44:46.358Z,9.10
2023-02-28T20:47:13.974Z,9.65
2023-02-28T20:49:47.908Z,9.55
2023-02-28T20:52:16.481Z,9.00
2023-02-28T20:54:43.465Z,8.82
2023-02-28T20:57:11.006Z,9.02
2023-02-28T20:59:41.217Z,9.45
2023-02-28T21:02:09.963Z,9.55
2023-02-28T21:04:36.916Z,9.98
2023-02-28T21:07:04.546Z,9.43
2023-02-28T21:09:32.040Z,9.70
2023-02-28T21:12:01.015Z,9.93
2023-02-28T21:14:30.804Z,9.07
2023-02-28T21:16:58.017Z,9.00
2023-02-28T21:19:24.986Z,9.45
2023-02-28T21:21:59.324Z,9.95
2023-02-28T21:24:26.327Z,8.60
2023-02-28T21:26:55.130Z,9.65
2023-02-28T21:29:22.575Z,8.77
2023-02-28T21:31:52.238Z,9.35
2023-02-28T21:34:19.655Z,9.65
2023-02-28T21:36:48.169Z,10.20
2023-02-28T21:39:29.181Z,9.18
2023-02-28T21:42:04.453Z,8.98
2023-02-28T21:44:35.068Z,8.38
2023-02-28T21:47:10.915Z,9.27
2023-02-28T21:49:39.820Z,9.40
2023-02-28T21:52:07.935Z,10.55
2023-02-28T21:54:37.011Z,10.00
2023-02-28T21:57:07.037Z,10.02
2023-02-28T21:59:34.536Z,9.93
2023-02-28T22:02:06.032Z,9.68
2023-02-28T22:04:33.363Z,10.05
2023-02-28T22:07:02.719Z,9.45
2023-02-28T22:09:32.539Z,10.55
2023-02-28T22:12:00.660Z,9.75
2023-02-28T22:14:28.910Z,9.48
2023-02-28T22:17:03.931Z,10.15
2023-02-28T22:19:30.932Z,10.25
2023-02-28T22:22:07.069Z,9.65
2023-02-28T22:24:38.381Z,10.32
2023-02-28T22:27:05.314Z,9.32
2023-02-28T22:29:32.530Z,9.52
2023-02-28T22:32:03.048Z,9.50
2023-02-28T22:34:33.003Z,9.52
2023-02-28T22:37:01.985Z,9.75
2023-02-28T22:39:29.218Z,9.88
2023-02-28T22:41:57.205Z,9.60
2023-02-28T22:44:31.475Z,8.80
2023-02-28T22:46:59.632Z,9.50
2023-02-28T22:49:26.664Z,9.40
2023-02-28T22:51:55.281Z,9.30
2023-02-28T22:54:22.849Z,9.15
2023-02-28T22:56:49.735Z,9.52
2023-02-28T22:59:16.653Z,10.07
2023-02-28T23:01:44.911Z,9.63
2023-02-28T23:04:12.812Z,9.60
2023-02-28T23:06:42.690Z,10.18
2023-02-28T23:09:18.393Z,9.68
2023-02-28T23:11:48.934Z,9.45
2023-02-28T23:14:17.431Z,9.75
2023-02-28T23:16:54.861Z,9.60
2023-02-28T23:19:26.703Z,9.63
2023-02-28T23:21:54.042Z,10.40
2023-02-28T23:24:23.938Z,9.00
2023-02-28T23:26:53.738Z,10.80
2023-02-28T23:29:25.223Z,10.48
2023-02-28T23:31:52.794Z,9.55
2023-02-28T23:34:32.265Z,10.18
2023-02-28T23:37:01.926Z,10.27
2023-02-28T23:39:31.227Z,9.55
2023-02-28T23:41:58.880Z,9.93
2023-02-28T23:44:26.873Z,9.43
2023-02-28T23:46:54.915Z,9.55
2023-02-28T23:49:22.214Z,9.35
2023-02-28T23:51:51.125Z,10.40
2023-02-28T23:54:19.111Z,9.75
2023-02-28T23:56:46.568Z,10.18
2023-02-28T23:59:13.449Z,10.40
